Time,TemperatureF,DewpointF,PressureIn,WindDirection,WindDirectionDegrees,WindSpeedMPH,WindSpeedGustMPH,Humidity,HourlyPrecipIn,Conditions,Clouds,dailyrainin,SoftwareType,DateUTC
2013-02-20 00:03:00,41.7,16.0,30.07,WSW,237,2.0,-999.0,35,-99.99,,,0.00,weatherlink.com 1.10,2013-02-20 05:03:00,
2013-02-20 00:18:00,40.9,16.0,30.07,NNW,327,0.0,-999.0,36,-99.99,,,0.00,weatherlink.com 1.10,2013-02-20 05:18:00,
2013-02-20 00:33:00,39.3,17.0,30.08,SW,223,1.0,-999.0,41,-99.99,,,0.00,weatherlink.com 1.10,2013-02-20 05:33:00,
2013-02-20 00:48:00,37.9,17.0,30.09,SW,223,0.0,-999.0,43,-99.99,,,0.00,weatherlink.com 1.10,2013-02-20 05:48:00,
2013-02-20 01:03:00,36.6,17.0,30.09,SSE,148,1.0,-999.0,46,-99.99,,,0.00,weatherlink.com 1.10,2013-02-20 06:03:00,
2013-02-20 01:19:00,35.9,17.0,30.09,ESE,119,0.0,-999.0,47,-99.99,,,0.00,weatherlink.com 1.10,2013-02-20 06:19:00,
2013-02-20 01:34:00,35.1,18.0,30.09,ESE,119,0.0,-999.0,50,-99.99,,,0.00,weatherlink.com 1.10,2013-02-20 06:34:00,
2013-02-20 01:49:00,34.3,17.0,30.09,ESE,119,0.0,-999.0,50,-99.99,,,0.00,weatherlink.com 1.10,2013-02-20 06:49:00,
2013-02-20 02:04:00,34.0,18.0,30.09,SW,222,0.0,-999.0,52,-99.99,,,0.00,weatherlink.com 1.10,2013-02-20 07:04:00,
2013-02-20 02:19:00,33.4,18.0,30.09,SW,222,0.0,-999.0,53,-99.99,,,0.00,weatherlink.com 1.10,2013-02-20 07:19:00,
2013-02-20 02:34:00,33.1,17.0,30.09,SW,222,0.0,-999.0,53,-99.99,,,0.00,weatherlink.com 1.10,2013-02-20 07:34:00,
2013-02-20 02:49:00,33.0,18.0,30.09,SW,222,0.0,-999.0,55,-99.99,,,0.00,weatherlink.com 1.10,2013-02-20 07:49:00,
2013-02-20 03:19:00,32.8,18.0,30.09,SW,222,0.0,-999.0,54,-99.99,,,0.00,weatherlink.com 1.10,2013-02-20 08:19:00,
2013-02-20 03:34:00,32.5,18.0,30.09,SW,222,0.0,-999.0,55,-99.99,,,0.00,weatherlink.com 1.10,2013-02-20 08:34:00,
2013-02-20 03:50:00,32.1,18.0,30.09,SW,222,0.0,-999.0,56,-99.99,,,0.00,weatherlink.com 1.10,2013-02-20 08:50:00,
2013-02-20 04:05:00,31.5,17.0,30.09,SW,222,0.0,-999.0,56,-99.99,,,0.00,weatherlink.com 1.10,2013-02-20 09:05:00,
2013-02-20 04:20:00,30.7,18.0,30.08,SW,222,0.0,-999.0,59,-99.99,,,0.00,weatherlink.com 1.10,2013-02-20 09:20:00,
2013-02-20 04:35:00,29.7,18.0,30.09,SW,222,0.0,-999.0,62,-99.99,,,0.00,weatherlink.com 1.10,2013-02-20 09:35:00,
2013-02-20 04:50:00,28.9,18.0,30.09,SW,222,0.0,-999.0,64,-99.99,,,0.00,weatherlink.com 1.10,2013-02-20 09:50:00,
2013-02-20 05:05:00,28.3,17.0,30.09,SW,222,0.0,-999.0,64,-99.99,,,0.00,weatherlink.com 1.10,2013-02-20 10:05:00,
2013-02-20 05:20:00,28.2,18.0,30.09,SW,222,0.0,-999.0,65,-99.99,,,0.00,weatherlink.com 1.10,2013-02-20 10:20:00,
2013-02-20 05:35:00,27.8,17.0,30.09,SW,222,0.0,-999.0,63,-99.99,,,0.00,weatherlink.com 1.10,2013-02-20 10:35:00,
2013-02-20 05:50:00,27.2,16.0,30.09,SW,222,0.0,-999.0,63,-99.99,,,0.00,weatherlink.com 1.10,2013-02-20 10:50:00,
2013-02-20 06:05:00,26.4,17.0,30.10,SW,222,0.0,-999.0,68,-99.99,,,0.00,weatherlink.com 1.10,2013-02-20 11:05:00,
2013-02-20 06:21:00,26.0,18.0,30.11,SW,222,0.0,-999.0,71,-99.99,,,0.00,weatherlink.com 1.10,2013-02-20 11:21:00,
2013-02-20 06:36:00,25.6,16.0,30.11,SW,222,0.0,-999.0,68,-99.99,,,0.00,weatherlink.com 1.10,2013-02-20 11:36:00,
2013-02-20 06:51:00,25.4,17.0,30.11,SW,222,0.0,-999.0,71,-99.99,,,0.00,weatherlink.com 1.10,2013-02-20 11:51:00,
2013-02-20 07:06:00,25.6,17.0,30.12,SW,222,0.0,-999.0,71,-99.99,,,0.00,weatherlink.com 1.10,2013-02-20 12:06:00,
2013-02-20 07:21:00,25.3,17.0,30.12,SW,222,0.0,-999.0,72,-99.99,,,0.00,weatherlink.com 1.10,2013-02-20 12:21:00,
2013-02-20 07:36:00,25.5,17.0,30.12,SW,222,0.0,-999.0,71,-99.99,,,0.00,weatherlink.com 1.10,2013-02-20 12:36:00,
2013-02-20 07:51:00,26.3,18.0,30.12,SW,222,0.0,-999.0,71,-99.99,,,0.00,weatherlink.com 1.10,2013-02-20 12:51:00,
2013-02-20 08:07:00,26.9,20.0,30.12,SW,222,0.0,-999.0,74,-99.99,,,0.00,weatherlink.com 1.10,2013-02-20 13:07:00,
2013-02-20 08:21:00,27.8,21.0,30.13,SW,222,0.0,-999.0,75,-99.99,,,0.00,weatherlink.com 1.10,2013-02-20 13:21:00,
2013-02-20 08:36:00,28.9,22.0,30.14,SW,222,0.0,-999.0,75,-99.99,,,0.00,weatherlink.com 1.10,2013-02-20 13:36:00,
2013-02-20 08:52:00,30.8,24.0,30.14,SW,222,0.0,-999.0,76,-99.99,,,0.00,weatherlink.com 1.10,2013-02-20 13:52:00,
2013-02-20 09:07:00,32.2,24.0,30.14,SW,222,0.0,-999.0,73,-99.99,,,0.00,weatherlink.com 1.10,2013-02-20 14:07:00,
2013-02-20 09:22:00,33.5,23.0,30.15,SW,222,0.0,-999.0,66,-99.99,,,0.00,weatherlink.com 1.10,2013-02-20 14:22:00,
2013-02-20 09:37:00,34.7,21.0,30.15,WSW,252,0.0,-999.0,57,-99.99,,,0.00,weatherlink.com 1.10,2013-02-20 14:37:00,
2013-02-20 09:52:00,36.2,22.0,30.15,WSW,252,0.0,-999.0,56,-99.99,,,0.00,weatherlink.com 1.10,2013-02-20 14:52:00,
2013-02-20 10:07:00,38.2,20.0,30.15,WSW,241,3.0,-999.0,49,-99.99,,,0.00,weatherlink.com 1.10,2013-02-20 15:07:00,
2013-02-20 10:22:00,39.9,21.0,30.15,SW,230,3.0,-999.0,48,-99.99,,,0.00,weatherlink.com 1.10,2013-02-20 15:22:00,
2013-02-20 10:37:00,42.4,21.0,30.15,WSW,252,1.0,-999.0,42,-99.99,,,0.00,weatherlink.com 1.10,2013-02-20 15:37:00,
2013-02-20 10:52:00,44.1,13.0,30.15,WSW,237,5.0,-999.0,28,-99.99,,,0.00,weatherlink.com 1.10,2013-02-20 15:52:00,
2013-02-20 11:07:00,45.2,14.0,30.15,West,280,0.0,-999.0,28,-99.99,,,0.00,weatherlink.com 1.10,2013-02-20 16:07:00,
2013-02-20 11:22:00,46.6,12.0,30.15,WNW,284,0.0,-999.0,25,-99.99,,,0.00,weatherlink.com 1.10,2013-02-20 16:22:00,
2013-02-20 11:38:00,47.9,13.0,30.14,West,259,0.0,-999.0,24,-99.99,,,0.00,weatherlink.com 1.10,2013-02-20 16:38:00,
2013-02-20 11:53:00,48.9,14.0,30.13,NW,311,1.0,-999.0,25,-99.99,,,0.00,weatherlink.com 1.10,2013-02-20 16:53:00,
2013-02-20 12:08:00,49.9,11.0,30.12,WNW,285,1.0,-999.0,21,-99.99,,,0.00,weatherlink.com 1.10,2013-02-20 17:08:00,
2013-02-20 12:23:00,50.8,10.0,30.11,SSW,198,1.0,-999.0,19,-99.99,,,0.00,weatherlink.com 1.10,2013-02-20 17:23:00,
2013-02-20 12:38:00,50.9,10.0,30.11,WNW,284,1.0,-999.0,19,-99.99,,,0.00,weatherlink.com 1.10,2013-02-20 17:38:00,
2013-02-20 12:53:00,51.6,10.0,30.11,West,264,1.0,-999.0,19,-99.99,,,0.00,weatherlink.com 1.10,2013-02-20 17:53:00,
2013-02-20 13:08:00,52.6,10.0,30.10,SW,227,4.0,-999.0,18,-99.99,,,0.00,weatherlink.com 1.10,2013-02-20 18:08:00,
2013-02-20 13:24:00,52.1,8.0,30.09,WNW,286,1.0,-999.0,17,-99.99,,,0.00,weatherlink.com 1.10,2013-02-20 18:24:00,
2013-02-20 13:38:00,53.2,10.0,30.08,SW,232,3.0,-999.0,18,-99.99,,,0.00,weatherlink.com 1.10,2013-02-20 18:38:00,
2013-02-20 13:54:00,53.6,8.0,30.08,SW,236,3.0,-999.0,16,-99.99,,,0.00,weatherlink.com 1.10,2013-02-20 18:54:00,
2013-02-20 14:09:00,53.5,9.0,30.08,West,265,1.0,-999.0,17,-99.99,,,0.00,weatherlink.com 1.10,2013-02-20 19:09:00,
2013-02-20 14:24:00,54.5,10.0,30.07,West,270,0.0,-999.0,17,-99.99,,,0.00,weatherlink.com 1.10,2013-02-20 19:24:00,
2013-02-20 14:39:00,54.6,9.0,30.07,SSW,210,1.0,-999.0,16,-99.99,,,0.00,weatherlink.com 1.10,2013-02-20 19:39:00,
2013-02-20 14:54:00,55.0,9.0,30.06,WSW,257,0.0,-999.0,16,-99.99,,,0.00,weatherlink.com 1.10,2013-02-20 19:54:00,
2013-02-20 15:09:00,55.0,8.0,30.07,WSW,238,2.0,-999.0,15,-99.99,,,0.00,weatherlink.com 1.10,2013-02-20 20:09:00,
2013-02-20 15:24:00,55.1,9.0,30.06,SW,215,0.0,-999.0,16,-99.99,,,0.00,weatherlink.com 1.10,2013-02-20 20:24:00,
2013-02-20 15:39:00,55.4,11.0,30.07,NW,315,0.0,-999.0,17,-99.99,,,0.00,weatherlink.com 1.10,2013-02-20 20:39:00,
2013-02-20 15:54:00,55.6,7.0,30.07,SW,229,0.0,-999.0,14,-99.99,,,0.00,weatherlink.com 1.10,2013-02-20 20:54:00,
2013-02-20 16:09:00,55.6,5.0,30.07,WSW,244,2.0,-999.0,13,-99.99,,,0.00,weatherlink.com 1.10,2013-02-20 21:09:00,
2013-02-20 16:24:00,55.7,7.0,30.08,SW,232,0.0,-999.0,14,-99.99,,,0.00,weatherlink.com 1.10,2013-02-20 21:24:00,
2013-02-20 16:40:00,55.2,8.0,30.08,WSW,242,2.0,-999.0,15,-99.99,,,0.00,weatherlink.com 1.10,2013-02-20 21:40:00,
2013-02-20 16:55:00,54.1,16.0,30.08,SSW,207,0.0,-999.0,22,-99.99,,,0.00,weatherlink.com 1.10,2013-02-20 21:55:00,
2013-02-20 17:10:00,52.7,17.0,30.09,SW,236,3.0,-999.0,24,-99.99,,,0.00,weatherlink.com 1.10,2013-02-20 22:10:00,
2013-02-20 17:25:00,51.6,18.0,30.09,WSW,240,1.0,-999.0,26,-99.99,,,0.00,weatherlink.com 1.10,2013-02-20 22:25:00,
2013-02-20 17:40:00,51.0,19.0,30.10,WNW,302,1.0,-999.0,28,-99.99,,,0.00,weatherlink.com 1.10,2013-02-20 22:40:00,
2013-02-20 17:55:00,50.4,19.0,30.12,SW,235,1.0,-999.0,29,-99.99,,,0.00,weatherlink.com 1.10,2013-02-20 22:55:00,
2013-02-20 18:10:00,49.7,19.0,30.12,SW,236,0.0,-999.0,30,-99.99,,,0.00,weatherlink.com 1.10,2013-02-20 23:10:00,
2013-02-20 18:25:00,49.0,19.0,30.12,WSW,237,2.0,-999.0,31,-99.99,,,0.00,weatherlink.com 1.10,2013-02-20 23:25:00,
2013-02-20 18:40:00,48.7,20.0,30.12,WSW,238,2.0,-999.0,32,-99.99,,,0.00,weatherlink.com 1.10,2013-02-20 23:40:00,
2013-02-20 18:55:00,48.4,20.0,30.12,WSW,238,0.0,-999.0,32,-99.99,,,0.00,weatherlink.com 1.10,2013-02-20 23:55:00,
2013-02-20 19:10:00,47.1,18.0,30.12,WSW,238,0.0,-999.0,32,-99.99,,,0.00,weatherlink.com 1.10,2013-02-21 00:10:00,
2013-02-20 19:25:00,45.5,20.0,30.11,WSW,238,0.0,-999.0,36,-99.99,,,0.00,weatherlink.com 1.10,2013-02-21 00:25:00,
2013-02-20 19:40:00,44.3,19.0,30.11,WSW,238,0.0,-999.0,37,-99.99,,,0.00,weatherlink.com 1.10,2013-02-21 00:40:00,
2013-02-20 19:56:00,43.8,20.0,30.12,WSW,238,0.0,-999.0,38,-99.99,,,0.00,weatherlink.com 1.10,2013-02-21 00:56:00,
2013-02-20 20:11:00,42.9,19.0,30.13,WSW,238,0.0,-999.0,38,-99.99,,,0.00,weatherlink.com 1.10,2013-02-21 01:11:00,
2013-02-20 20:26:00,42.7,17.0,30.13,WSW,238,0.0,-999.0,36,-99.99,,,0.00,weatherlink.com 1.10,2013-02-21 01:26:00,
2013-02-20 20:41:00,41.5,17.0,30.12,WSW,238,0.0,-999.0,38,-99.99,,,0.00,weatherlink.com 1.10,2013-02-21 01:41:00,
2013-02-20 20:56:00,40.4,18.0,30.13,WSW,238,0.0,-999.0,41,-99.99,,,0.00,weatherlink.com 1.10,2013-02-21 01:56:00,
2013-02-20 21:11:00,39.9,17.0,30.13,WSW,238,0.0,-999.0,40,-99.99,,,0.00,weatherlink.com 1.10,2013-02-21 02:11:00,
2013-02-20 21:26:00,39.8,13.0,30.13,WSW,238,0.0,-999.0,33,-99.99,,,0.00,weatherlink.com 1.10,2013-02-21 02:26:00,
2013-02-20 21:41:00,39.9,11.0,30.14,WSW,238,0.0,-999.0,30,-99.99,,,0.00,weatherlink.com 1.10,2013-02-21 02:41:00,
2013-02-20 21:56:00,39.6,10.0,30.14,WSW,238,0.0,-999.0,29,-99.99,,,0.00,weatherlink.com 1.10,2013-02-21 02:56:00,
2013-02-20 22:11:00,39.3,10.0,30.14,WSW,238,0.0,-999.0,30,-99.99,,,0.00,weatherlink.com 1.10,2013-02-21 03:11:00,
2013-02-20 22:26:00,38.6,10.0,30.15,WSW,238,0.0,-999.0,31,-99.99,,,0.00,weatherlink.com 1.10,2013-02-21 03:26:00,
2013-02-20 22:41:00,37.7,9.0,30.14,WSW,238,0.0,-999.0,30,-99.99,,,0.00,weatherlink.com 1.10,2013-02-21 03:41:00,
2013-02-20 22:56:00,38.3,8.0,30.14,NNE,33,0.0,-999.0,29,-99.99,,,0.00,weatherlink.com 1.10,2013-02-21 03:56:00,
2013-02-20 23:11:00,38.3,9.0,30.14,North,360,0.0,-999.0,30,-99.99,,,0.00,weatherlink.com 1.10,2013-02-21 04:11:00,
2013-02-20 23:27:00,38.6,9.0,30.14,NNE,24,0.0,-999.0,29,-99.99,,,0.00,weatherlink.com 1.10,2013-02-21 04:27:00,
2013-02-20 23:42:00,38.4,9.0,30.15,NNE,30,0.0,-999.0,29,-99.99,,,0.00,weatherlink.com 1.10,2013-02-21 04:42:00,
2013-02-20 23:57:00,38.2,9.0,30.15,NE,41,0.0,-999.0,30,-99.99,,,0.00,weatherlink.com 1.10,2013-02-21 04:57:00,